createdAt,value
2019-02-19T00:00:45.932Z,19.48
2019-02-19T00:04:49.310Z,22.03
2019-02-19T00:08:52.709Z,21.10
2019-02-19T00:12:56.094Z,22.50
2019-02-19T00:16:59.478Z,19.10
2019-02-19T00:21:02.779Z,18.00
2019-02-19T00:25:06.367Z,21.85
2019-02-19T00:29:09.759Z,20.43
2019-02-19T00:33:13.142Z,21.10
2019-02-19T00:37:16.474Z,22.98
2019-02-19T00:41:19.778Z,23.55
2019-02-19T00:45:23.143Z,19.32
2019-02-19T00:49:26.558Z,19.75
2019-02-19T00:53:29.938Z,26.42
2019-02-19T00:57:33.342Z,23.20
2019-02-19T01:01:36.642Z,21.20
2019-02-19T01:05:39.944Z,24.93
2019-02-19T01:09:43.338Z,17.75
2019-02-19T01:13:46.734Z,20.92
2019-02-19T01:17:50.122Z,24.57
2019-02-19T01:21:53.491Z,21.40
2019-02-19T01:25:56.874Z,24.50
2019-02-19T01:30:00.866Z,16.90
2019-02-19T01:34:04.182Z,18.65
2019-02-19T01:38:07.573Z,21.80
2019-02-19T01:42:10.941Z,20.88
2019-02-19T01:46:14.318Z,19.07
2019-02-19T01:50:17.685Z,20.48
2019-02-19T01:54:21.005Z,19.00
2019-02-19T01:58:24.404Z,25.82
2019-02-19T02:02:27.770Z,13.50
2019-02-19T02:06:50.579Z,18.85
2019-02-19T02:10:53.951Z,20.65
2019-02-19T02:14:57.335Z,20.57
2019-02-19T02:19:00.725Z,21.45
2019-02-19T02:23:04.130Z,21.68
2019-02-19T02:27:07.523Z,18.62
2019-02-19T02:31:10.900Z,23.25
2019-02-19T02:35:14.290Z,18.48
2019-02-19T02:39:17.697Z,20.57
2019-02-19T02:43:21.100Z,27.67
2019-02-19T02:47:24.466Z,13.88
2019-02-19T02:51:27.842Z,17.35
2019-02-19T02:55:31.238Z,15.43
2019-02-19T02:59:34.628Z,15.98
2019-02-19T03:03:38.023Z,18.92
2019-02-19T03:07:43.032Z,21.97
2019-02-19T03:11:46.407Z,15.17
2019-02-19T03:15:49.791Z,20.45
2019-02-19T03:19:53.186Z,18.25
2019-02-19T03:23:56.583Z,19.70
2019-02-19T03:27:59.959Z,18.60
2019-02-19T03:32:03.329Z,15.80
2019-02-19T03:36:06.730Z,22.98
2019-02-19T03:40:10.168Z,15.35
2019-02-19T03:44:13.610Z,18.75
2019-02-19T03:48:16.971Z,15.15
2019-02-19T03:52:20.366Z,22.00
2019-02-19T03:56:23.758Z,11.83
2019-02-19T04:00:27.150Z,18.55
2019-02-19T04:04:30.548Z,21.80
2019-02-19T04:08:33.910Z,11.47
2019-02-19T04:12:37.224Z,22.10
2019-02-19T04:16:40.621Z,23.80
2019-02-19T04:20:44.005Z,17.57
2019-02-19T04:24:47.399Z,19.30
2019-02-19T04:28:50.774Z,20.67
2019-02-19T04:32:54.273Z,19.77
2019-02-19T04:36:57.654Z,22.10
2019-02-19T04:41:01.054Z,20.23
2019-02-19T04:45:05.187Z,22.82
2019-02-19T04:49:08.559Z,14.27
2019-02-19T04:53:11.935Z,25.43
2019-02-19T04:57:15.312Z,32.20
2019-02-19T05:01:18.711Z,34.10
2019-02-19T05:05:22.106Z,35.23
2019-02-19T05:09:25.471Z,29.72
2019-02-19T05:13:28.867Z,32.95
2019-02-19T05:17:32.250Z,45.70
2019-02-19T05:21:35.757Z,42.88
2019-02-19T05:25:39.182Z,50.83
2019-02-19T05:29:42.641Z,45.15
2019-02-19T05:33:46.011Z,52.50
2019-02-19T05:37:49.415Z,54.55
2019-02-19T05:41:52.816Z,45.63
2019-02-19T05:45:56.282Z,49.10
2019-02-19T05:49:59.696Z,55.55
2019-02-19T05:54:03.088Z,33.15
2019-02-19T05:58:06.483Z,31.85
2019-02-19T06:02:09.878Z,48.70
2019-02-19T06:06:13.262Z,45.12
2019-02-19T06:10:16.656Z,50.45
2019-02-19T06:14:20.051Z,44.65
2019-02-19T06:18:23.422Z,47.85
2019-02-19T06:22:26.831Z,42.30
2019-02-19T06:26:30.231Z,55.75
2019-02-19T06:30:33.648Z,50.67
2019-02-19T06:34:37.013Z,68.10
2019-02-19T06:38:40.389Z,53.63
2019-02-19T06:42:43.777Z,45.80
2019-02-19T06:46:47.179Z,54.30
2019-02-19T06:50:50.574Z,52.80
2019-02-19T06:54:53.942Z,58.15
2019-02-19T06:58:57.322Z,53.02
2019-02-19T07:03:02.339Z,66.53
2019-02-19T07:07:05.737Z,58.63
2019-02-19T07:11:09.131Z,58.15
2019-02-19T07:15:12.525Z,50.00
2019-02-19T07:19:15.902Z,40.63
2019-02-19T07:23:19.206Z,64.65
2019-02-19T07:27:22.603Z,63.45
2019-02-19T07:31:26.003Z,71.53
2019-02-19T07:35:29.376Z,66.62
2019-02-19T07:39:32.754Z,75.15
2019-02-19T07:43:36.137Z,62.67
2019-02-19T07:47:39.532Z,63.70
2019-02-19T07:51:42.971Z,56.53
2019-02-19T07:55:46.362Z,65.55
2019-02-19T07:59:49.727Z,57.93
2019-02-19T08:03:53.102Z,64.00
2019-02-19T08:07:56.510Z,55.98
2019-02-19T08:11:59.895Z,42.43
2019-02-19T08:16:03.304Z,63.95
2019-02-19T08:20:15.340Z,58.75
2019-02-19T08:24:13.491Z,59.80
2019-02-19T08:28:16.886Z,60.80
2019-02-19T08:32:20.280Z,60.08
2019-02-19T08:36:23.646Z,36.08
2019-02-19T08:40:27.029Z,34.33
2019-02-19T08:44:30.410Z,46.60
2019-02-19T08:48:33.826Z,57.17
2019-02-19T08:52:37.222Z,49.63
2019-02-19T08:56:40.607Z,53.65
2019-02-19T09:00:43.979Z,52.25
2019-02-19T09:04:47.371Z,49.05
2019-02-19T09:08:50.759Z,45.43
2019-02-19T09:12:54.164Z,34.63
2019-02-19T09:16:57.563Z,32.83
2019-02-19T09:21:00.975Z,29.90
2019-02-19T09:25:06.290Z,44.30
2019-02-19T09:29:09.693Z,29.37
2019-02-19T09:33:13.130Z,45.17
2019-02-19T09:37:16.493Z,30.68
2019-02-19T09:41:19.885Z,24.10
2019-02-19T09:45:23.268Z,31.60
2019-02-19T09:49:26.652Z,45.65
2019-02-19T09:53:30.067Z,33.23
2019-02-19T09:57:33.470Z,47.08
2019-02-19T10:01:36.844Z,27.37
2019-02-19T10:05:40.267Z,30.30
2019-02-19T10:09:43.719Z,20.68
2019-02-19T10:13:47.115Z,30.05
2019-02-19T10:17:50.451Z,33.95
2019-02-19T10:21:53.818Z,37.20
2019-02-19T10:25:57.186Z,41.80
2019-02-19T10:30:00.482Z,20.75
2019-02-19T10:34:03.881Z,21.73
2019-02-19T10:38:07.349Z,13.28
2019-02-19T10:42:10.747Z,23.52
2019-02-19T10:46:14.121Z,14.07
2019-02-19T10:50:17.510Z,22.35
2019-02-19T10:54:20.870Z,27.20
2019-02-19T10:58:24.522Z,23.32
2019-02-19T11:02:27.887Z,25.48
2019-02-19T11:06:31.259Z,33.28
2019-02-19T11:10:34.654Z,18.55
2019-02-19T11:14:38.047Z,16.97
2019-02-19T11:18:41.448Z,17.80
2019-02-19T11:22:47.748Z,21.45
2019-02-19T11:26:53.640Z,22.67
2019-02-19T11:30:57.253Z,21.23
2019-02-19T11:35:00.872Z,19.32
2019-02-19T11:39:05.023Z,31.33
2019-02-19T11:43:08.459Z,19.30
2019-02-19T11:47:11.823Z,22.77
2019-02-19T11:51:15.202Z,13.68
2019-02-19T11:55:19.409Z,15.93
2019-02-19T11:59:22.803Z,17.90
2019-02-19T12:03:26.220Z,13.22
2019-02-19T12:07:29.595Z,17.05
2019-02-19T12:11:32.998Z,12.37
2019-02-19T12:15:36.372Z,15.70
2019-02-19T12:19:39.771Z,22.40
2019-02-19T12:23:43.200Z,12.20
2019-02-19T12:27:46.572Z,14.93
2019-02-19T12:31:49.951Z,12.93
2019-02-19T12:35:53.338Z,16.60
2019-02-19T12:39:56.731Z,18.25
2019-02-19T12:44:00.251Z,16.12
2019-02-19T12:48:04.523Z,16.85
2019-02-19T12:52:07.910Z,13.32
2019-02-19T12:56:11.310Z,17.40
2019-02-19T13:00:19.450Z,14.70
2019-02-19T13:04:22.851Z,10.32
2019-02-19T13:08:26.232Z,14.80
2019-02-19T13:12:29.629Z,14.28
2019-02-19T13:16:32.994Z,13.17
2019-02-19T13:20:36.483Z,10.10
2019-02-19T13:24:39.867Z,7.37
2019-02-19T13:28:43.239Z,11.38
2019-02-19T13:32:46.675Z,5.90
2019-02-19T13:36:50.052Z,14.63
2019-02-19T13:40:53.498Z,7.00
2019-02-19T13:44:56.895Z,5.55
2019-02-19T13:49:00.304Z,14.03
2019-02-19T13:53:05.324Z,13.23
2019-02-19T13:57:08.699Z,18.20
2019-02-19T14:01:12.096Z,17.37
2019-02-19T14:05:15.479Z,10.63
2019-02-19T14:09:18.859Z,7.53
2019-02-19T14:13:22.239Z,21.25
2019-02-19T14:17:25.619Z,11.55
2019-02-19T14:21:30.639Z,12.05
2019-02-19T14:25:47.615Z,8.43
2019-02-19T14:29:58.522Z,14.70
2019-02-19T14:34:19.818Z,9.28
2019-02-19T14:38:33.930Z,13.38
2019-02-19T14:42:55.192Z,9.88
2019-02-19T14:47:00.227Z,8.48
2019-02-19T14:51:05.269Z,5.90
2019-02-19T14:55:10.296Z,11.70
2019-02-19T14:59:15.328Z,18.20
2019-02-19T15:03:26.106Z,10.45
2019-02-19T15:07:37.124Z,14.95
2019-02-19T15:11:48.186Z,6.03
2019-02-19T15:15:53.216Z,5.97
2019-02-19T15:20:14.549Z,16.07
2019-02-19T15:24:19.575Z,8.67
2019-02-19T15:28:36.326Z,13.00
2019-02-19T15:32:41.323Z,11.20
2019-02-19T15:37:02.547Z,7.83
2019-02-19T15:41:25.927Z,6.65
2019-02-19T15:50:06.743Z,8.83
2019-02-19T15:54:14.408Z,5.80
2019-02-19T15:58:35.764Z,15.50
2019-02-19T16:02:43.599Z,13.55
2019-02-19T16:06:57.595Z,7.42
2019-02-19T16:11:18.872Z,19.57
2019-02-19T16:15:36.235Z,17.42
2019-02-19T16:23:58.659Z,23.45
2019-02-19T16:28:03.691Z,12.80
2019-02-19T16:32:08.755Z,16.17
2019-02-19T16:36:26.268Z,10.87
2019-02-19T16:40:31.270Z,11.70
2019-02-19T16:44:39.271Z,16.57
2019-02-19T16:49:01.045Z,10.53
2019-02-19T16:53:12.298Z,13.22
2019-02-19T16:57:17.316Z,11.93
2019-02-19T17:05:54.087Z,11.83
2019-02-19T17:10:17.266Z,14.55
2019-02-19T17:14:33.512Z,14.75
2019-02-19T17:18:47.041Z,18.12
2019-02-19T17:22:58.292Z,18.42
2019-02-19T17:27:19.750Z,10.43
2019-02-19T17:31:24.778Z,11.88
2019-02-19T17:35:42.019Z,5.70
2019-02-19T17:39:47.126Z,5.75
2019-02-19T17:43:58.292Z,8.63
2019-02-19T17:48:19.855Z,8.33
2019-02-19T17:52:37.078Z,9.05
2019-02-19T17:57:00.670Z,11.15
2019-02-19T18:01:08.493Z,6.53
2019-02-19T18:05:28.864Z,8.85
2019-02-19T18:09:42.642Z,6.65
2019-02-19T18:13:53.411Z,14.70
2019-02-19T18:18:07.650Z,5.40
2019-02-19T18:22:11.167Z,11.35
2019-02-19T18:26:14.560Z,12.15
2019-02-19T18:30:17.994Z,14.00
2019-02-19T18:34:21.407Z,21.87
2019-02-19T18:38:24.788Z,12.95
2019-02-19T18:42:28.175Z,14.13
2019-02-19T18:46:31.566Z,16.30
2019-02-19T18:50:35.014Z,21.27
2019-02-19T18:54:38.399Z,16.80
2019-02-19T18:58:41.808Z,16.10
2019-02-19T19:02:45.199Z,18.42
2019-02-19T19:06:48.588Z,25.40
2019-02-19T19:10:51.992Z,24.35
2019-02-19T19:14:55.363Z,20.65
2019-02-19T19:18:58.747Z,28.42
2019-02-19T19:23:02.227Z,19.48
2019-02-19T19:27:05.633Z,18.12
2019-02-19T19:31:09.014Z,24.00
2019-02-19T19:35:12.369Z,24.97
2019-02-19T19:39:15.763Z,21.87
2019-02-19T19:43:19.159Z,18.32
2019-02-19T19:47:22.559Z,22.55
2019-02-19T19:51:25.959Z,15.80
2019-02-19T19:55:29.343Z,23.38
2019-02-19T19:59:32.711Z,19.37
2019-02-19T20:03:36.103Z,18.25
2019-02-19T20:07:39.520Z,17.80
2019-02-19T20:11:42.907Z,25.95
2019-02-19T20:15:46.303Z,23.98
2019-02-19T20:19:49.685Z,12.85
2019-02-19T20:23:53.069Z,22.98
2019-02-19T20:27:56.467Z,23.77
2019-02-19T20:31:59.859Z,12.30
2019-02-19T20:36:03.360Z,10.78
2019-02-19T20:40:12.498Z,17.57
2019-02-19T20:44:15.906Z,20.57
2019-02-19T20:48:19.309Z,13.50
2019-02-19T20:52:22.704Z,16.23
2019-02-19T20:56:26.135Z,21.90
2019-02-19T21:00:30.250Z,20.43
2019-02-19T21:04:33.695Z,25.15
2019-02-19T21:08:37.101Z,23.15
2019-02-19T21:12:40.497Z,30.70
2019-02-19T21:16:43.881Z,37.42
2019-02-19T21:20:47.265Z,36.42
2019-02-19T21:24:50.675Z,34.55
2019-02-19T21:28:54.085Z,40.10
2019-02-19T21:32:57.481Z,37.60
2019-02-19T21:37:00.864Z,40.60
2019-02-19T21:41:04.243Z,40.48
2019-02-19T21:45:12.775Z,35.70
2019-02-19T21:49:16.173Z,39.80
2019-02-19T21:53:19.575Z,31.70
2019-02-19T21:57:22.957Z,28.02
2019-02-19T22:01:26.331Z,39.00
2019-02-19T22:05:29.727Z,34.65
2019-02-19T22:09:33.128Z,39.92
2019-02-19T22:13:36.530Z,41.30
2019-02-19T22:17:39.901Z,37.93
2019-02-19T22:21:44.918Z,46.02
2019-02-19T22:25:48.320Z,20.77
2019-02-19T22:29:51.730Z,34.20
2019-02-19T22:33:55.149Z,37.50
2019-02-19T22:37:58.523Z,40.70
2019-02-19T22:42:01.903Z,34.98
2019-02-19T22:46:05.307Z,50.78
2019-02-19T22:50:09.556Z,35.20
2019-02-19T22:54:26.562Z,40.83
2019-02-19T22:58:29.858Z,44.93
2019-02-19T23:02:33.261Z,47.20
2019-02-19T23:06:36.682Z,40.58
2019-02-19T23:10:40.156Z,41.45
2019-02-19T23:14:43.553Z,40.63
2019-02-19T23:18:47.012Z,23.47
2019-02-19T23:22:50.409Z,36.70
2019-02-19T23:26:53.825Z,37.63
2019-02-19T23:30:57.214Z,38.53
2019-02-19T23:35:14.353Z,34.55
2019-02-19T23:39:17.735Z,38.60
2019-02-19T23:43:21.107Z,37.17
2019-02-19T23:47:24.506Z,36.33
2019-02-19T23:51:27.902Z,33.63
2019-02-19T23:55:31.301Z,31.55
2019-02-19T23:59:34.698Z,34.73
